createdAt,value
2023-05-05T00:00:09.011Z,63.98
2023-05-05T00:03:12.826Z,64.15
2023-05-05T00:06:01.388Z,64.33
2023-05-05T00:08:50.664Z,64.53
2023-05-05T00:11:39.505Z,64.56
2023-05-05T00:14:28.191Z,64.79
2023-05-05T00:17:17.250Z,64.98
2023-05-05T00:20:06.977Z,65.05
2023-05-05T00:22:55.796Z,65.21
2023-05-05T00:25:44.533Z,65.33
2023-05-05T00:28:33.261Z,65.50
2023-05-05T00:31:22.092Z,65.73
2023-05-05T00:34:11.163Z,65.92
2023-05-05T00:37:00.952Z,66.00
2023-05-05T00:39:50.885Z,66.10
2023-05-05T00:42:44.118Z,66.29
2023-05-05T00:45:33.332Z,66.46
2023-05-05T00:48:24.565Z,66.45
2023-05-05T00:51:13.919Z,66.66
2023-05-05T00:54:02.966Z,66.76
2023-05-05T00:56:51.969Z,66.98
2023-05-05T00:59:41.233Z,67.07
2023-05-05T01:03:03.417Z,67.08
2023-05-05T01:06:06.118Z,67.27
2023-05-05T01:09:05.999Z,67.45
2023-05-05T01:12:06.759Z,67.48
2023-05-05T01:15:01.774Z,67.73
2023-05-05T01:18:09.026Z,67.83
2023-05-05T01:21:12.200Z,67.97
2023-05-05T01:24:44.476Z,68.03
2023-05-05T01:28:15.540Z,68.23
2023-05-05T01:31:22.340Z,68.33
2023-05-05T01:34:16.051Z,68.47
2023-05-05T01:37:04.786Z,68.46
2023-05-05T01:39:57.703Z,68.58
2023-05-05T01:42:48.078Z,68.53
2023-05-05T01:45:42.337Z,68.62
2023-05-05T01:48:31.572Z,68.73
2023-05-05T01:51:23.583Z,68.66
2023-05-05T01:54:14.587Z,68.63
2023-05-05T01:57:05.946Z,68.74
2023-05-05T01:59:57.295Z,69.02
2023-05-05T02:02:49.386Z,69.15
2023-05-05T02:05:40.770Z,69.20
2023-05-05T02:08:31.422Z,69.27
2023-05-05T02:11:21.984Z,69.31
2023-05-05T02:14:12.150Z,69.41
2023-05-05T02:17:01.585Z,69.38
2023-05-05T02:19:52.528Z,69.45
2023-05-05T02:22:42.006Z,69.59
2023-05-05T02:25:36.996Z,69.76
2023-05-05T02:28:35.613Z,69.94
2023-05-05T02:31:27.897Z,70.16
2023-05-05T02:34:22.883Z,70.33
2023-05-05T02:37:16.060Z,70.48
2023-05-05T02:40:07.863Z,70.60
2023-05-05T02:43:00.976Z,70.61
2023-05-05T02:45:52.096Z,70.86
2023-05-05T02:48:41.386Z,70.78
2023-05-05T02:51:30.047Z,70.71
2023-05-05T02:54:20.407Z,70.84
2023-05-05T02:57:11.632Z,70.79
2023-05-05T03:00:24.084Z,70.76
2023-05-05T03:03:18.919Z,70.93
2023-05-05T03:06:17.641Z,71.02
2023-05-05T03:09:30.934Z,70.95
2023-05-05T03:12:22.478Z,71.04
2023-05-05T03:15:22.538Z,71.16
2023-05-05T03:18:12.792Z,71.16
2023-05-05T03:21:08.854Z,71.38
2023-05-05T03:23:59.718Z,71.38
2023-05-05T03:26:49.681Z,71.37
2023-05-05T03:29:39.942Z,71.40
2023-05-05T03:32:32.164Z,71.52
2023-05-05T03:35:21.258Z,71.56
2023-05-05T03:38:10.105Z,71.54
2023-05-05T03:41:03.268Z,71.76
2023-05-05T03:43:53.122Z,72.10
2023-05-05T03:46:41.957Z,72.15
2023-05-05T03:49:33.113Z,72.10
2023-05-05T03:52:22.770Z,72.35
2023-05-05T03:55:11.715Z,72.52
2023-05-05T03:58:00.469Z,72.58
2023-05-05T04:00:49.156Z,72.55
2023-05-05T04:03:39.404Z,72.65
2023-05-05T04:06:28.215Z,72.84
2023-05-05T04:09:16.831Z,72.95
2023-05-05T04:12:06.327Z,73.03
2023-05-05T04:14:55.488Z,72.89
2023-05-05T04:17:44.606Z,72.87
2023-05-05T04:20:35.084Z,73.01
2023-05-05T04:23:24.820Z,73.05
2023-05-05T04:26:13.557Z,73.24
2023-05-05T04:29:02.878Z,73.02
2023-05-05T04:31:51.722Z,72.96
2023-05-05T04:34:40.615Z,72.85
2023-05-05T04:37:29.544Z,72.75
2023-05-05T04:40:19.967Z,72.62
2023-05-05T04:43:09.457Z,72.56
2023-05-05T04:45:58.374Z,72.76
2023-05-05T04:48:50.206Z,72.79
2023-05-05T04:51:42.378Z,72.78
2023-05-05T04:54:31.051Z,72.92
2023-05-05T04:57:19.723Z,72.95
2023-05-05T05:00:09.852Z,73.04
2023-05-05T05:02:59.396Z,72.97
2023-05-05T05:05:48.140Z,72.98
2023-05-05T05:08:36.905Z,73.17
2023-05-05T05:11:26.189Z,73.28
2023-05-05T05:14:15.005Z,73.41
2023-05-05T05:17:04.242Z,73.34
2023-05-05T05:19:54.653Z,73.02
2023-05-05T05:22:43.811Z,73.01
2023-05-05T05:25:36.187Z,72.87
2023-05-05T05:28:24.816Z,72.93
2023-05-05T05:31:16.948Z,72.79
2023-05-05T05:34:05.772Z,72.62
2023-05-05T05:36:54.556Z,72.39
2023-05-05T05:39:51.304Z,72.31
2023-05-05T05:42:41.421Z,72.25
2023-05-05T05:45:30.646Z,72.06
2023-05-05T05:48:19.341Z,71.78
2023-05-05T05:51:08.063Z,71.33
2023-05-05T05:53:58.777Z,71.36
2023-05-05T05:56:48.045Z,70.46
2023-05-05T05:59:36.842Z,69.96
2023-05-05T06:02:27.291Z,69.71
2023-05-05T06:05:16.453Z,69.99
2023-05-05T06:08:05.650Z,69.69
2023-05-05T06:11:00.767Z,69.36
2023-05-05T06:13:49.735Z,68.92
2023-05-05T06:16:38.312Z,68.86
2023-05-05T06:19:29.718Z,68.26
2023-05-05T06:22:18.591Z,67.59
2023-05-05T06:25:07.745Z,66.88
2023-05-05T06:27:57.002Z,66.62
2023-05-05T06:30:45.886Z,66.95
2023-05-05T06:33:35.267Z,66.06
2023-05-05T06:36:24.155Z,65.55
2023-05-05T06:39:15.815Z,65.49
2023-05-05T06:42:04.906Z,65.83
2023-05-05T06:44:56.016Z,65.31
2023-05-05T06:47:44.638Z,65.42
2023-05-05T06:50:33.632Z,65.62
2023-05-05T06:53:22.282Z,65.34
2023-05-05T06:56:12.855Z,64.75
2023-05-05T06:59:01.582Z,64.35
2023-05-05T07:01:51.031Z,63.38
2023-05-05T07:04:39.731Z,62.31
2023-05-05T07:07:28.842Z,61.27
2023-05-05T07:10:17.489Z,61.48
2023-05-05T07:13:08.482Z,61.47
2023-05-05T07:15:57.224Z,60.90
2023-05-05T07:18:46.105Z,60.43
2023-05-05T07:21:35.065Z,60.32
2023-05-05T07:24:24.348Z,60.04
2023-05-05T07:27:13.078Z,59.12
2023-05-05T07:30:04.033Z,58.19
2023-05-05T07:32:56.033Z,57.22
2023-05-05T07:35:45.229Z,58.18
2023-05-05T07:38:33.916Z,57.71
2023-05-05T07:41:22.742Z,58.08
2023-05-05T07:44:11.572Z,57.55
2023-05-05T07:47:00.408Z,56.27
2023-05-05T07:49:49.025Z,56.38
2023-05-05T07:52:48.289Z,55.82
2023-05-05T07:55:42.667Z,55.95
2023-05-05T07:58:31.498Z,55.08
2023-05-05T08:01:20.508Z,54.23
2023-05-05T08:04:09.256Z,54.05
2023-05-05T08:06:58.706Z,53.58
2023-05-05T08:09:47.562Z,53.11
2023-05-05T08:12:36.756Z,52.86
2023-05-05T08:15:25.342Z,53.14
2023-05-05T08:18:14.703Z,53.23
2023-05-05T08:21:07.531Z,53.45
2023-05-05T08:23:56.268Z,53.36
2023-05-05T08:26:45.269Z,52.90
2023-05-05T08:29:33.991Z,52.36
2023-05-05T08:32:23.294Z,52.34
2023-05-05T08:35:12.316Z,51.09
2023-05-05T08:38:01.672Z,51.78
2023-05-05T08:40:51.659Z,52.77
2023-05-05T08:43:41.393Z,52.13
2023-05-05T08:46:31.183Z,51.32
2023-05-05T08:49:21.989Z,50.14
2023-05-05T08:52:13.751Z,49.25
2023-05-05T08:55:14.579Z,49.45
2023-05-05T08:58:06.218Z,50.64
2023-05-05T09:00:56.615Z,49.94
2023-05-05T09:03:46.511Z,48.91
2023-05-05T09:06:37.547Z,49.27
2023-05-05T09:09:27.810Z,48.45
2023-05-05T09:12:18.660Z,47.94
2023-05-05T09:15:11.774Z,47.62
2023-05-05T09:18:01.939Z,46.59
2023-05-05T09:20:50.526Z,46.89
2023-05-05T09:23:39.220Z,46.02
2023-05-05T09:26:32.857Z,46.84
2023-05-05T09:29:23.348Z,47.67
2023-05-05T09:32:12.497Z,46.34
2023-05-05T09:35:01.859Z,46.15
2023-05-05T09:37:50.497Z,46.99
2023-05-05T09:40:50.525Z,46.27
2023-05-05T09:43:52.500Z,46.48
2023-05-05T09:46:51.174Z,45.95
2023-05-05T09:49:39.879Z,45.82
2023-05-05T09:52:29.668Z,46.25
2023-05-05T09:55:18.356Z,45.98
2023-05-05T09:58:24.757Z,45.57
2023-05-05T10:01:23.714Z,44.35
2023-05-05T10:04:31.335Z,45.64
2023-05-05T10:07:24.671Z,46.03
2023-05-05T10:10:18.634Z,46.36
2023-05-05T10:13:07.451Z,44.22
2023-05-05T10:15:58.012Z,43.54
2023-05-05T10:18:47.545Z,44.05
2023-05-05T10:21:41.938Z,43.76
2023-05-05T10:24:43.122Z,44.74
2023-05-05T10:27:39.787Z,43.77
2023-05-05T10:30:32.766Z,44.01
2023-05-05T10:33:33.957Z,44.33
2023-05-05T10:36:24.699Z,44.53
2023-05-05T10:39:15.398Z,45.03
2023-05-05T10:42:04.049Z,45.76
2023-05-05T10:44:54.168Z,44.76
2023-05-05T10:47:44.588Z,44.52
2023-05-05T10:50:39.219Z,45.02
2023-05-05T10:53:42.988Z,44.75
2023-05-05T10:56:34.187Z,44.88
2023-05-05T10:59:37.966Z,44.84
2023-05-05T11:02:29.416Z,45.06
2023-05-05T11:05:21.107Z,46.28
2023-05-05T11:08:27.612Z,45.87
2023-05-05T11:11:16.366Z,45.38
2023-05-05T11:14:19.977Z,44.80
2023-05-05T11:17:54.667Z,44.78
2023-05-05T11:20:44.642Z,44.26
2023-05-05T11:23:34.105Z,43.60
2023-05-05T11:26:51.573Z,44.79
2023-05-05T11:30:09.066Z,43.55
2023-05-05T11:33:26.587Z,43.06
2023-05-05T11:36:17.883Z,44.03
2023-05-05T11:39:23.189Z,45.16
2023-05-05T11:42:27.224Z,45.16
2023-05-05T11:45:23.634Z,45.49
2023-05-05T11:48:46.169Z,44.71
2023-05-05T11:51:35.235Z,44.19
2023-05-05T11:54:25.671Z,42.99
2023-05-05T11:57:15.701Z,43.36
2023-05-05T12:00:08.208Z,43.16
2023-05-05T12:02:57.970Z,42.88
2023-05-05T12:05:48.786Z,43.43
2023-05-05T12:08:41.394Z,42.84
2023-05-05T12:11:30.005Z,42.60
2023-05-05T12:14:19.075Z,42.31
2023-05-05T12:17:08.591Z,41.70
2023-05-05T12:19:57.235Z,42.28
2023-05-05T12:22:46.074Z,40.98
2023-05-05T12:25:36.725Z,41.42
2023-05-05T12:28:25.208Z,42.59
2023-05-05T12:31:14.307Z,42.27
2023-05-05T12:34:04.832Z,41.67
2023-05-05T12:36:53.854Z,41.82
2023-05-05T12:39:42.733Z,41.75
2023-05-05T12:42:31.705Z,42.30
2023-05-05T12:45:20.336Z,42.24
2023-05-05T12:48:22.712Z,42.86
2023-05-05T12:51:16.218Z,42.21
2023-05-05T12:54:05.974Z,41.10
2023-05-05T12:56:56.325Z,41.42
2023-05-05T12:59:45.136Z,42.22
2023-05-05T13:02:35.174Z,40.78
2023-05-05T13:05:34.597Z,41.60
2023-05-05T13:08:23.328Z,41.16
2023-05-05T13:11:12.374Z,39.52
2023-05-05T13:14:01.101Z,38.91
2023-05-05T13:16:50.450Z,39.30
2023-05-05T13:19:46.184Z,39.17
2023-05-05T13:22:35.140Z,39.59
2023-05-05T13:25:23.748Z,38.42
2023-05-05T13:28:12.544Z,38.95
2023-05-05T13:31:01.220Z,38.96
2023-05-05T13:33:49.840Z,38.40
2023-05-05T13:36:38.540Z,39.28
2023-05-05T13:39:27.201Z,40.14
2023-05-05T13:42:15.896Z,40.79
2023-05-05T13:45:05.715Z,39.61
2023-05-05T13:47:57.274Z,40.29
2023-05-05T13:50:46.177Z,39.73
2023-05-05T13:53:35.929Z,40.57
2023-05-05T13:56:26.398Z,40.91
2023-05-05T13:59:15.113Z,39.88
2023-05-05T14:02:04.229Z,40.05
2023-05-05T14:04:52.925Z,39.60
2023-05-05T14:07:41.882Z,40.17
2023-05-05T14:10:31.157Z,40.77
2023-05-05T14:13:19.987Z,40.95
2023-05-05T14:16:08.579Z,39.83
2023-05-05T14:18:57.248Z,39.91
2023-05-05T14:21:46.292Z,39.78
2023-05-05T14:24:34.958Z,39.87
2023-05-05T14:27:23.538Z,40.33
2023-05-05T14:30:12.673Z,39.81
2023-05-05T14:33:01.463Z,40.08
2023-05-05T14:35:50.569Z,40.28
2023-05-05T14:38:39.150Z,40.62
2023-05-05T14:41:28.066Z,40.57
2023-05-05T14:44:16.784Z,41.24
2023-05-05T14:47:05.831Z,40.97
2023-05-05T14:49:54.352Z,41.36
2023-05-05T14:52:44.740Z,41.04
2023-05-05T14:55:33.503Z,41.69
2023-05-05T14:58:24.814Z,41.83
2023-05-05T15:01:13.428Z,41.87
2023-05-05T15:04:02.641Z,42.12
2023-05-05T15:06:51.289Z,41.63
2023-05-05T15:09:39.886Z,41.48
2023-05-05T15:12:29.095Z,41.56
2023-05-05T15:15:17.914Z,41.19
2023-05-05T15:18:06.843Z,40.86
2023-05-05T15:20:55.571Z,40.71
2023-05-05T15:23:44.463Z,40.71
2023-05-05T15:26:33.552Z,40.48
2023-05-05T15:29:22.114Z,40.67
2023-05-05T15:32:11.504Z,40.80
2023-05-05T15:35:00.182Z,40.73
2023-05-05T15:37:54.451Z,40.57
2023-05-05T15:40:44.911Z,41.90
2023-05-05T15:43:34.373Z,42.92
2023-05-05T15:46:23.379Z,43.05
2023-05-05T15:49:12.320Z,43.52
2023-05-05T15:52:00.921Z,43.92
2023-05-05T15:54:49.893Z,44.24
2023-05-05T15:57:40.520Z,44.79
2023-05-05T16:00:29.857Z,45.15
2023-05-05T16:03:18.793Z,45.42
2023-05-05T16:06:08.086Z,45.83
2023-05-05T16:08:58.693Z,45.61
2023-05-05T16:11:47.919Z,45.74
2023-05-05T16:14:37.295Z,46.22
2023-05-05T16:17:25.990Z,46.46
2023-05-05T16:20:14.545Z,46.61
2023-05-05T16:23:03.347Z,46.76
2023-05-05T16:25:52.036Z,47.04
2023-05-05T16:28:40.760Z,47.23
2023-05-05T16:31:29.245Z,47.45
2023-05-05T16:34:18.026Z,47.86
2023-05-05T16:37:06.656Z,48.21
2023-05-05T16:39:56.072Z,48.22
2023-05-05T16:42:44.775Z,48.38
2023-05-05T16:45:33.843Z,48.42
2023-05-05T16:48:22.917Z,48.54
2023-05-05T16:51:11.933Z,48.88
2023-05-05T16:54:01.766Z,49.04
2023-05-05T16:56:51.156Z,49.04
2023-05-05T16:59:41.765Z,49.25
2023-05-05T17:02:30.879Z,49.53
2023-05-05T17:05:19.911Z,50.05
2023-05-05T17:08:11.434Z,50.18
2023-05-05T17:11:00.064Z,50.41
2023-05-05T17:13:48.714Z,50.75
2023-05-05T17:16:37.719Z,50.76
2023-05-05T17:19:27.066Z,50.96
2023-05-05T17:22:15.630Z,51.39
2023-05-05T17:25:06.084Z,51.69
2023-05-05T17:27:55.573Z,51.72
2023-05-05T17:30:44.965Z,52.11
2023-05-05T17:33:33.615Z,52.07
2023-05-05T17:36:22.803Z,52.39
2023-05-05T17:39:11.552Z,52.65
2023-05-05T17:42:00.301Z,53.14
2023-05-05T17:44:50.166Z,53.34
2023-05-05T17:47:38.991Z,53.55
2023-05-05T17:50:32.648Z,53.77
2023-05-05T17:53:23.530Z,54.06
2023-05-05T17:56:12.277Z,54.28
2023-05-05T17:59:03.240Z,54.19
2023-05-05T18:01:51.875Z,54.77
2023-05-05T18:04:40.699Z,54.92
2023-05-05T18:07:29.232Z,55.09
2023-05-05T18:10:18.225Z,55.19
2023-05-05T18:13:08.006Z,55.36
2023-05-05T18:15:57.066Z,55.44
2023-05-05T18:18:45.898Z,55.77
2023-05-05T18:21:34.699Z,55.81
2023-05-05T18:24:23.512Z,56.11
2023-05-05T18:27:12.496Z,56.65
2023-05-05T18:30:01.495Z,56.86
2023-05-05T18:32:50.482Z,57.05
2023-05-05T18:35:39.062Z,57.29
2023-05-05T18:38:27.740Z,57.58
2023-05-05T18:41:16.418Z,57.60
2023-05-05T18:44:05.177Z,57.93
2023-05-05T18:46:53.770Z,58.04
2023-05-05T18:49:42.547Z,58.11
2023-05-05T18:52:31.098Z,58.45
2023-05-05T18:55:19.899Z,58.76
2023-05-05T18:58:09.395Z,59.14
2023-05-05T19:00:58.473Z,59.20
2023-05-05T19:03:48.216Z,59.43
2023-05-05T19:06:38.578Z,59.60
2023-05-05T19:09:27.597Z,60.12
2023-05-05T19:12:16.716Z,60.28
2023-05-05T19:15:06.964Z,60.47
2023-05-05T19:17:56.151Z,60.62
2023-05-05T19:20:44.656Z,60.85
2023-05-05T19:23:33.434Z,61.01
2023-05-05T19:26:24.450Z,60.95
2023-05-05T19:29:13.289Z,61.09
2023-05-05T19:32:02.077Z,61.23
2023-05-05T19:34:54.471Z,61.31
2023-05-05T19:37:42.983Z,61.32
2023-05-05T19:40:31.651Z,61.38
2023-05-05T19:43:20.274Z,61.66
2023-05-05T19:46:09.066Z,61.66
2023-05-05T19:48:57.799Z,61.84
2023-05-05T19:51:49.847Z,62.08
2023-05-05T19:54:38.415Z,62.34
2023-05-05T19:57:27.603Z,62.31
2023-05-05T20:00:16.480Z,62.41
2023-05-05T20:03:05.446Z,62.60
2023-05-05T20:05:54.025Z,62.70
2023-05-05T20:08:42.599Z,62.97
2023-05-05T20:11:31.315Z,62.98
2023-05-05T20:14:20.049Z,63.30
2023-05-05T20:17:08.800Z,63.23
2023-05-05T20:19:57.831Z,63.43
2023-05-05T20:22:47.742Z,63.54
2023-05-05T20:25:37.273Z,63.68
2023-05-05T20:28:25.876Z,63.77
2023-05-05T20:31:15.245Z,63.97
2023-05-05T20:34:03.882Z,64.17
2023-05-05T20:36:52.811Z,64.29
2023-05-05T20:39:42.406Z,64.19
2023-05-05T20:42:31.468Z,64.31
2023-05-05T20:45:20.138Z,64.27
2023-05-05T20:48:11.525Z,64.34
2023-05-05T20:51:03.960Z,64.13
2023-05-05T20:53:52.820Z,64.11
2023-05-05T20:56:41.357Z,64.19
2023-05-05T20:59:30.253Z,64.13
2023-05-05T21:02:19.002Z,64.11
2023-05-05T21:05:08.095Z,64.21
2023-05-05T21:07:58.372Z,64.28
2023-05-05T21:10:48.771Z,64.30
2023-05-05T21:13:37.241Z,64.34
2023-05-05T21:16:25.928Z,64.37
2023-05-05T21:19:14.842Z,64.25
2023-05-05T21:22:04.481Z,64.46
2023-05-05T21:24:53.862Z,64.42
2023-05-05T21:27:42.685Z,64.47
2023-05-05T21:30:31.257Z,64.48
2023-05-05T21:33:20.112Z,64.53
2023-05-05T21:36:09.026Z,64.59
2023-05-05T21:38:59.789Z,64.53
2023-05-05T21:41:49.340Z,64.67
2023-05-05T21:44:38.182Z,64.71
2023-05-05T21:47:27.298Z,64.81
2023-05-05T21:50:16.417Z,64.83
2023-05-05T21:53:04.978Z,64.83
2023-05-05T21:55:53.806Z,64.93
2023-05-05T21:58:42.337Z,64.96
2023-05-05T22:01:31.485Z,65.14
2023-05-05T22:04:21.297Z,65.23
2023-05-05T22:07:12.658Z,65.24
2023-05-05T22:10:03.503Z,65.33
2023-05-05T22:12:52.238Z,65.24
2023-05-05T22:15:46.705Z,65.25
2023-05-05T22:18:36.458Z,65.36
2023-05-05T22:21:25.033Z,65.51
2023-05-05T22:24:13.635Z,65.64
2023-05-05T22:27:02.186Z,65.65
2023-05-05T22:29:51.018Z,65.78
2023-05-05T22:32:39.824Z,65.81
2023-05-05T22:35:29.157Z,65.95
2023-05-05T22:38:17.844Z,66.05
2023-05-05T22:41:07.302Z,66.24
2023-05-05T22:43:56.262Z,66.33
2023-05-05T22:46:45.081Z,66.38
2023-05-05T22:49:33.826Z,66.41
2023-05-05T22:52:22.616Z,66.58
2023-05-05T22:55:14.008Z,66.50
2023-05-05T22:58:02.801Z,66.60
2023-05-05T23:00:51.387Z,66.73
2023-05-05T23:03:40.310Z,66.75
2023-05-05T23:06:29.137Z,66.86
2023-05-05T23:09:18.036Z,67.02
2023-05-05T23:12:06.796Z,67.22
2023-05-05T23:14:55.849Z,67.31
2023-05-05T23:17:44.378Z,67.45
2023-05-05T23:20:33.293Z,67.53
2023-05-05T23:23:22.843Z,67.64
2023-05-05T23:26:13.703Z,67.71
2023-05-05T23:29:02.414Z,67.82
2023-05-05T23:31:51.100Z,67.98
2023-05-05T23:34:39.606Z,67.99
2023-05-05T23:37:28.522Z,68.13
2023-05-05T23:40:17.211Z,68.22
2023-05-05T23:43:05.998Z,68.33
2023-05-05T23:45:54.602Z,68.60
2023-05-05T23:48:43.913Z,68.60
2023-05-05T23:51:32.476Z,68.63
2023-05-05T23:54:21.244Z,68.92
2023-05-05T23:57:09.847Z,68.93
2023-05-05T23:59:58.623Z,68.97
